sensor_id;sensor_type;location;lat;lon;timestamp;P1;durP1;ratioP1;P2;durP2;ratioP2
68144;SDS011;55400;51.824;-0.196;2022-12-29T16:18:37;unknown;;;unknown;;
68144;SDS011;55400;51.824;-0.196;2022-12-29T16:19:49;unknown;;;unknown;;
68144;SDS011;55400;51.824;-0.196;2022-12-29T16:24:43;unknown;;;unknown;;
68144;SDS011;55400;51.824;-0.196;2022-12-29T16:29:43;unknown;;;unknown;;
68144;SDS011;55400;51.824;-0.196;2022-12-29T16:34:43;unknown;;;unknown;;
68144;SDS011;55400;51.824;-0.196;2022-12-29T16:39:43;6.20;;;2.20;;
68144;SDS011;55400;51.824;-0.196;2022-12-29T16:44:43;6.20;;;2.20;;
68144;SDS011;55400;51.824;-0.196;2022-12-29T16:49:48;6.20;;;2.20;;
68144;SDS011;55400;51.824;-0.196;2022-12-29T16:59:43;6.20;;;2.20;;
68144;SDS011;55400;51.824;-0.196;2022-12-29T17:04:43;6.20;;;2.20;;
68144;SDS011;55400;51.824;-0.196;2022-12-29T17:09:43;12.50;;;2.80;;
68144;SDS011;55400;51.824;-0.196;2022-12-29T17:14:44;12.50;;;2.80;;
68144;SDS011;55400;51.824;-0.196;2022-12-29T17:19:46;12.50;;;2.80;;
68144;SDS011;55400;51.824;-0.196;2022-12-29T17:24:43;12.50;;;2.80;;
68144;SDS011;55400;51.824;-0.196;2022-12-29T17:29:43;12.50;;;2.80;;
68144;SDS011;55400;51.824;-0.196;2022-12-29T17:34:43;12.50;;;2.80;;
68144;SDS011;55400;51.824;-0.196;2022-12-29T17:39:43;9.50;;;2.50;;
68144;SDS011;55400;51.824;-0.196;2022-12-29T17:44:43;9.50;;;2.50;;
68144;SDS011;55400;51.824;-0.196;2022-12-29T17:59:43;9.50;;;2.50;;
68144;SDS011;55400;51.824;-0.196;2022-12-29T18:04:43;9.50;;;2.50;;
68144;SDS011;55400;51.824;-0.196;2022-12-29T18:09:43;15.80;;;6.20;;
68144;SDS011;55400;51.824;-0.196;2022-12-29T18:14:43;15.80;;;6.20;;
68144;SDS011;55400;51.824;-0.196;2022-12-29T18:19:43;15.80;;;6.20;;
68144;SDS011;55400;51.824;-0.196;2022-12-29T18:24:43;15.80;;;6.20;;
68144;SDS011;55400;51.824;-0.196;2022-12-29T18:29:43;15.80;;;6.20;;
68144;SDS011;55400;51.824;-0.196;2022-12-29T18:34:44;15.80;;;6.20;;
68144;SDS011;55400;51.824;-0.196;2022-12-29T18:39:43;14.30;;;2.90;;
68144;SDS011;55400;51.824;-0.196;2022-12-29T18:44:43;14.30;;;2.90;;
68144;SDS011;55400;51.824;-0.196;2022-12-29T18:54:43;14.30;;;2.90;;
68144;SDS011;55400;51.824;-0.196;2022-12-29T18:59:43;14.30;;;2.90;;
68144;SDS011;55400;51.824;-0.196;2022-12-29T19:04:44;14.30;;;2.90;;
68144;SDS011;55400;51.824;-0.196;2022-12-29T19:09:43;10.90;;;3.00;;
68144;SDS011;55400;51.824;-0.196;2022-12-29T19:14:44;10.90;;;3.00;;
68144;SDS011;55400;51.824;-0.196;2022-12-29T19:19:43;10.90;;;3.00;;
68144;SDS011;55400;51.824;-0.196;2022-12-29T19:24:43;10.90;;;3.00;;
68144;SDS011;55400;51.824;-0.196;2022-12-29T19:29:43;10.90;;;3.00;;
68144;SDS011;55400;51.824;-0.196;2022-12-29T19:34:43;10.90;;;3.00;;
68144;SDS011;55400;51.824;-0.196;2022-12-29T19:39:43;7.30;;;2.40;;
68144;SDS011;55400;51.824;-0.196;2022-12-29T19:44:43;7.30;;;2.40;;
68144;SDS011;55400;51.824;-0.196;2022-12-29T19:49:43;7.30;;;2.40;;
68144;SDS011;55400;51.824;-0.196;2022-12-29T19:54:43;7.30;;;2.40;;
68144;SDS011;55400;51.824;-0.196;2022-12-29T19:59:44;7.30;;;2.40;;
68144;SDS011;55400;51.824;-0.196;2022-12-29T20:04:43;7.30;;;2.40;;
68144;SDS011;55400;51.824;-0.196;2022-12-29T20:09:44;17.10;;;3.20;;
68144;SDS011;55400;51.824;-0.196;2022-12-29T20:14:44;17.10;;;3.20;;
68144;SDS011;55400;51.824;-0.196;2022-12-29T20:19:43;17.10;;;3.20;;
68144;SDS011;55400;51.824;-0.196;2022-12-29T20:24:43;17.10;;;3.20;;
68144;SDS011;55400;51.824;-0.196;2022-12-29T20:34:44;17.10;;;3.20;;
68144;SDS011;55400;51.824;-0.196;2022-12-29T20:39:44;8.40;;;2.90;;
68144;SDS011;55400;51.824;-0.196;2022-12-29T20:44:43;8.40;;;2.90;;
68144;SDS011;55400;51.824;-0.196;2022-12-29T20:49:43;8.40;;;2.90;;
68144;SDS011;55400;51.824;-0.196;2022-12-29T20:54:43;8.40;;;2.90;;
68144;SDS011;55400;51.824;-0.196;2022-12-29T21:04:43;8.40;;;2.90;;
68144;SDS011;55400;51.824;-0.196;2022-12-29T21:09:43;7.80;;;2.60;;
68144;SDS011;55400;51.824;-0.196;2022-12-29T21:14:43;7.80;;;2.60;;
68144;SDS011;55400;51.824;-0.196;2022-12-29T21:19:43;7.80;;;2.60;;
68144;SDS011;55400;51.824;-0.196;2022-12-29T21:24:43;7.80;;;2.60;;
68144;SDS011;55400;51.824;-0.196;2022-12-29T21:29:43;7.80;;;2.60;;
68144;SDS011;55400;51.824;-0.196;2022-12-29T21:34:45;7.80;;;2.60;;
68144;SDS011;55400;51.824;-0.196;2022-12-29T21:44:44;9.00;;;2.90;;
68144;SDS011;55400;51.824;-0.196;2022-12-29T21:54:44;9.00;;;2.90;;
68144;SDS011;55400;51.824;-0.196;2022-12-29T21:59:44;9.00;;;2.90;;
68144;SDS011;55400;51.824;-0.196;2022-12-29T22:04:44;9.00;;;2.90;;
68144;SDS011;55400;51.824;-0.196;2022-12-29T22:09:44;10.00;;;2.90;;
68144;SDS011;55400;51.824;-0.196;2022-12-29T22:14:44;10.00;;;2.90;;
68144;SDS011;55400;51.824;-0.196;2022-12-29T22:19:44;10.00;;;2.90;;
68144;SDS011;55400;51.824;-0.196;2022-12-29T22:24:44;10.00;;;2.90;;
68144;SDS011;55400;51.824;-0.196;2022-12-29T22:29:44;10.00;;;2.90;;
68144;SDS011;55400;51.824;-0.196;2022-12-29T22:34:45;10.00;;;2.90;;
68144;SDS011;55400;51.824;-0.196;2022-12-29T22:44:44;10.20;;;3.20;;
68144;SDS011;55400;51.824;-0.196;2022-12-29T22:59:44;10.20;;;3.20;;
68144;SDS011;55400;51.824;-0.196;2022-12-29T23:04:44;10.20;;;3.20;;
68144;SDS011;55400;51.824;-0.196;2022-12-29T23:09:44;15.30;;;3.40;;
68144;SDS011;55400;51.824;-0.196;2022-12-29T23:14:44;15.30;;;3.40;;
68144;SDS011;55400;51.824;-0.196;2022-12-29T23:19:44;15.30;;;3.40;;
68144;SDS011;55400;51.824;-0.196;2022-12-29T23:24:44;15.30;;;3.40;;
68144;SDS011;55400;51.824;-0.196;2022-12-29T23:29:44;15.30;;;3.40;;
68144;SDS011;55400;51.824;-0.196;2022-12-29T23:34:44;15.30;;;3.40;;
68144;SDS011;55400;51.824;-0.196;2022-12-29T23:39:44;12.70;;;3.20;;
68144;SDS011;55400;51.824;-0.196;2022-12-29T23:44:44;12.70;;;3.20;;
68144;SDS011;55400;51.824;-0.196;2022-12-29T23:49:44;12.70;;;3.20;;
68144;SDS011;55400;51.824;-0.196;2022-12-29T23:54:44;12.70;;;3.20;;
